createdAt,value
2019-01-25T00:00:15.362Z,-2.70
2019-01-25T00:02:45.070Z,-2.70
2019-01-25T00:05:13.718Z,-2.80
2019-01-25T00:07:42.287Z,-2.80
2019-01-25T00:10:11.118Z,-2.80
2019-01-25T00:12:39.681Z,-2.80
2019-01-25T00:15:11.273Z,-2.70
2019-01-25T00:17:39.848Z,-2.70
2019-01-25T00:20:13.020Z,-2.80
2019-01-25T00:22:41.731Z,-2.80
2019-01-25T00:25:10.786Z,-2.80
2019-01-25T00:27:39.349Z,-2.80
2019-01-25T00:30:15.551Z,-2.80
2019-01-25T00:32:44.053Z,-2.80
2019-01-25T00:35:12.715Z,-2.80
2019-01-25T00:37:41.281Z,-2.90
2019-01-25T00:40:18.184Z,-2.90
2019-01-25T00:42:47.786Z,-2.80
2019-01-25T00:45:17.931Z,-2.90
2019-01-25T00:47:46.492Z,-2.90
2019-01-25T00:50:21.994Z,-3.00
2019-01-25T00:52:51.182Z,-3.00
2019-01-25T00:55:20.628Z,-3.00
2019-01-25T00:57:49.138Z,-3.00
2019-01-25T01:00:25.873Z,-3.00
2019-01-25T01:02:54.616Z,-3.00
2019-01-25T01:05:23.748Z,-3.00
2019-01-25T01:07:52.460Z,-3.00
2019-01-25T01:10:21.593Z,-2.90
2019-01-25T01:12:51.203Z,-2.90
2019-01-25T01:15:20.204Z,-2.80
2019-01-25T01:17:50.048Z,-2.90
2019-01-25T01:20:20.082Z,-2.90
2019-01-25T01:22:49.416Z,-2.90
2019-01-25T01:25:18.191Z,-2.90
2019-01-25T01:27:46.855Z,-2.90
2019-01-25T01:30:18.571Z,-2.90
2019-01-25T01:32:47.231Z,-2.80
2019-01-25T01:35:15.868Z,-2.90
2019-01-25T01:37:44.693Z,-3.00
2019-01-25T01:40:22.213Z,-3.00
2019-01-25T01:42:49.255Z,-3.10
2019-01-25T01:45:18.369Z,-3.10
2019-01-25T01:47:47.298Z,-3.00
2019-01-25T01:50:17.534Z,-3.00
2019-01-25T01:52:46.858Z,-3.00
2019-01-25T01:55:15.500Z,-3.10
2019-01-25T01:57:44.168Z,-3.10
2019-01-25T02:00:15.977Z,-3.10
2019-01-25T02:02:44.578Z,-3.10
2019-01-25T02:05:13.232Z,-3.10
2019-01-25T02:07:41.815Z,-3.10
2019-01-25T02:10:16.277Z,-3.10
2019-01-25T02:12:44.917Z,-3.10
2019-01-25T02:15:15.897Z,-3.10
2019-01-25T02:17:44.618Z,-3.00
2019-01-25T02:20:16.546Z,-3.00
2019-01-25T02:22:45.630Z,-3.00
2019-01-25T02:25:14.939Z,-3.10
2019-01-25T02:27:44.049Z,-3.10
2019-01-25T02:30:15.563Z,-3.10
2019-01-25T02:32:44.157Z,-3.10
2019-01-25T02:35:12.858Z,-3.10
2019-01-25T02:37:42.617Z,-3.10
2019-01-25T02:40:14.184Z,-3.10
2019-01-25T02:42:42.865Z,-3.10
2019-01-25T02:45:12.979Z,-3.10
2019-01-25T02:47:41.704Z,-3.10
2019-01-25T02:50:16.682Z,-3.10
2019-01-25T02:52:45.439Z,-3.10
2019-01-25T02:55:15.354Z,-3.00
2019-01-25T02:57:44.018Z,-3.00
2019-01-25T03:00:18.515Z,-3.00
2019-01-25T03:02:49.015Z,-3.00
2019-01-25T03:05:19.021Z,-3.00
2019-01-25T03:07:50.562Z,-3.10
2019-01-25T03:10:28.246Z,-3.00
2019-01-25T03:12:51.400Z,-3.10
2019-01-25T03:15:25.270Z,-3.00
2019-01-25T03:17:54.295Z,-3.00
2019-01-25T03:20:23.724Z,-3.00
2019-01-25T03:22:52.449Z,-3.00
2019-01-25T03:25:23.271Z,-3.00
2019-01-25T03:27:52.964Z,-2.90
2019-01-25T03:30:25.771Z,-3.00
2019-01-25T03:32:54.497Z,-3.00
2019-01-25T03:35:24.729Z,-3.00
2019-01-25T03:37:53.837Z,-3.10
2019-01-25T03:40:26.989Z,-3.10
2019-01-25T03:42:55.564Z,-3.10
2019-01-25T03:45:24.685Z,-3.10
2019-01-25T03:47:53.313Z,-3.10
2019-01-25T03:50:27.589Z,-3.10
2019-01-25T03:52:56.293Z,-3.10
2019-01-25T03:55:25.461Z,-3.10
2019-01-25T03:57:54.089Z,-3.10
2019-01-25T04:00:28.694Z,-3.10
2019-01-25T04:02:57.596Z,-3.10
2019-01-25T04:05:26.267Z,-3.20
2019-01-25T04:07:54.910Z,-3.20
2019-01-25T04:10:26.337Z,-3.10
2019-01-25T04:12:55.074Z,-3.10
2019-01-25T04:15:26.904Z,-3.20
2019-01-25T04:17:56.246Z,-3.20
2019-01-25T04:20:24.903Z,-3.20
2019-01-25T04:22:53.632Z,-3.20
2019-01-25T04:25:24.158Z,-3.10
2019-01-25T04:27:53.278Z,-3.00
2019-01-25T04:30:27.276Z,-2.90
2019-01-25T04:32:57.054Z,-3.00
2019-01-25T04:35:25.763Z,-2.90
2019-01-25T04:37:54.476Z,-2.90
2019-01-25T04:40:23.227Z,-2.90
2019-01-25T04:42:52.415Z,-2.90
2019-01-25T04:45:22.902Z,-3.00
2019-01-25T04:47:51.657Z,-3.10
2019-01-25T04:50:24.859Z,-3.10
2019-01-25T04:52:53.781Z,-3.10
2019-01-25T04:55:27.808Z,-3.10
2019-01-25T04:58:05.054Z,-3.10
2019-01-25T05:00:33.775Z,-3.20
2019-01-25T05:03:02.567Z,-3.20
2019-01-25T05:05:31.319Z,-3.10
2019-01-25T05:08:07.046Z,-3.10
2019-01-25T05:10:35.759Z,-3.10
2019-01-25T05:13:04.769Z,-3.20
2019-01-25T05:15:33.473Z,-3.20
2019-01-25T05:18:03.190Z,-3.20
2019-01-25T05:20:31.780Z,-3.20
2019-01-25T05:23:02.902Z,-3.20
2019-01-25T05:25:31.551Z,-3.20
2019-01-25T05:28:09.818Z,-3.20
2019-01-25T05:30:38.566Z,-3.20
2019-01-25T05:33:07.145Z,-3.10
2019-01-25T05:35:37.183Z,-3.00
2019-01-25T05:38:05.827Z,-3.10
2019-01-25T05:40:34.486Z,-3.10
2019-01-25T05:43:02.981Z,-3.00
2019-01-25T05:45:32.982Z,-3.00
2019-01-25T05:48:01.700Z,-3.00
2019-01-25T05:50:30.574Z,-3.00
2019-01-25T05:52:59.282Z,-3.00
2019-01-25T05:55:27.799Z,-3.00
2019-01-25T05:58:02.557Z,-2.90
2019-01-25T06:00:33.006Z,-3.00
2019-01-25T06:03:12.028Z,-2.90
2019-01-25T06:05:41.249Z,-2.90
2019-01-25T06:08:13.985Z,-2.80
2019-01-25T06:10:42.678Z,-2.70
2019-01-25T06:13:11.411Z,-2.80
2019-01-25T06:15:40.339Z,-2.80
2019-01-25T06:18:10.174Z,-2.90
2019-01-25T06:20:38.749Z,-2.80
2019-01-25T06:23:07.303Z,-2.90
2019-01-25T06:25:35.882Z,-2.90
2019-01-25T06:28:06.283Z,-2.90
2019-01-25T06:30:34.985Z,-2.90
2019-01-25T06:33:03.794Z,-2.90
2019-01-25T06:35:34.122Z,-2.90
2019-01-25T06:38:03.034Z,-3.00
2019-01-25T06:40:34.371Z,-3.00
2019-01-25T06:43:04.611Z,-3.00
2019-01-25T06:45:34.401Z,-2.90
2019-01-25T06:48:03.885Z,-2.90
2019-01-25T06:50:32.564Z,-2.90
2019-01-25T06:53:01.106Z,-2.90
2019-01-25T06:55:29.680Z,-2.90
2019-01-25T06:57:59.914Z,-3.00
2019-01-25T07:00:30.178Z,-3.00
2019-01-25T07:02:58.964Z,-3.00
2019-01-25T07:05:27.525Z,-3.00
2019-01-25T07:07:56.129Z,-3.10
2019-01-25T07:10:24.997Z,-3.00
2019-01-25T07:12:53.798Z,-3.00
2019-01-25T07:15:24.075Z,-3.10
2019-01-25T07:17:52.721Z,-3.10
2019-01-25T07:20:21.593Z,-3.10
2019-01-25T07:22:50.152Z,-3.10
2019-01-25T07:25:21.333Z,-3.10
2019-01-25T07:27:49.835Z,-3.10
2019-01-25T07:30:18.353Z,-3.20
2019-01-25T07:32:47.228Z,-3.20
2019-01-25T07:35:15.827Z,-3.30
2019-01-25T07:37:44.378Z,-3.30
2019-01-25T07:40:13.052Z,-3.40
2019-01-25T07:42:41.629Z,-3.40
2019-01-25T07:45:12.154Z,-3.40
2019-01-25T07:47:40.733Z,-3.40
2019-01-25T07:50:11.719Z,-3.40
2019-01-25T07:52:40.391Z,-3.40
2019-01-25T07:55:10.929Z,-3.40
2019-01-25T07:57:40.135Z,-3.40
2019-01-25T08:00:14.532Z,-3.40
2019-01-25T08:02:43.150Z,-3.30
2019-01-25T08:05:11.909Z,-3.30
2019-01-25T08:07:41.769Z,-3.30
2019-01-25T08:10:13.725Z,-3.20
2019-01-25T08:12:42.399Z,-3.30
2019-01-25T08:15:26.062Z,-3.20
2019-01-25T08:17:55.637Z,-3.30
2019-01-25T08:20:25.059Z,-3.50
2019-01-25T08:22:53.708Z,-3.50
2019-01-25T08:25:22.325Z,-3.60
2019-01-25T08:27:50.901Z,-3.60
2019-01-25T08:30:24.561Z,-3.40
2019-01-25T08:32:53.244Z,-3.30
2019-01-25T08:35:22.105Z,-3.30
2019-01-25T08:37:50.697Z,-3.30
2019-01-25T08:40:19.349Z,-3.20
2019-01-25T08:42:47.937Z,-3.30
2019-01-25T08:45:18.301Z,-3.10
2019-01-25T08:47:46.996Z,-3.10
2019-01-25T08:50:21.357Z,-3.00
2019-01-25T08:52:49.937Z,-3.00
2019-01-25T08:55:18.574Z,-2.90
2019-01-25T08:57:47.199Z,-2.90
2019-01-25T09:00:19.046Z,-2.90
2019-01-25T09:02:47.575Z,-2.80
2019-01-25T09:05:17.088Z,-2.90
2019-01-25T09:07:45.674Z,-2.90
2019-01-25T09:10:16.310Z,-3.10
2019-01-25T09:12:44.980Z,-3.00
2019-01-25T09:15:28.562Z,-3.00
2019-01-25T09:17:58.279Z,-3.00
2019-01-25T09:20:26.913Z,-3.10
2019-01-25T09:22:55.503Z,-3.00
2019-01-25T09:25:24.076Z,-2.80
2019-01-25T09:27:52.657Z,-2.70
2019-01-25T09:30:24.921Z,-2.70
2019-01-25T09:32:53.447Z,-2.50
2019-01-25T09:35:22.256Z,-2.60
2019-01-25T09:37:51.014Z,-2.60
2019-01-25T09:40:22.530Z,-2.60
2019-01-25T09:42:51.457Z,-2.50
2019-01-25T09:45:20.364Z,-2.40
2019-01-25T09:47:49.082Z,-2.30
2019-01-25T09:50:22.018Z,-2.30
2019-01-25T09:52:50.928Z,-2.20
2019-01-25T09:55:24.266Z,-2.10
2019-01-25T09:57:53.913Z,-2.10
2019-01-25T10:00:25.559Z,-2.10
2019-01-25T10:02:54.125Z,-2.20
2019-01-25T10:05:22.847Z,-2.10
2019-01-25T10:07:51.437Z,-2.10
2019-01-25T10:10:21.285Z,-2.10
2019-01-25T10:12:49.925Z,-2.10
2019-01-25T10:15:28.977Z,-2.00
2019-01-25T10:17:57.718Z,-1.90
2019-01-25T10:20:26.546Z,-1.90
2019-01-25T10:22:55.179Z,-1.70
2019-01-25T10:25:23.769Z,-1.70
2019-01-25T10:27:52.343Z,-1.80
2019-01-25T10:30:24.108Z,-1.80
2019-01-25T10:32:52.606Z,-1.80
2019-01-25T10:35:21.565Z,-1.70
2019-01-25T10:37:50.606Z,-1.70
2019-01-25T10:40:21.313Z,-1.70
2019-01-25T10:42:53.360Z,-1.60
2019-01-25T10:45:29.090Z,-1.50
2019-01-25T10:47:57.737Z,-1.40
2019-01-25T10:50:26.249Z,-1.30
2019-01-25T10:52:54.747Z,-1.30
2019-01-25T10:55:23.411Z,-1.30
2019-01-25T10:57:51.984Z,-1.30
2019-01-25T11:00:22.836Z,-1.30
2019-01-25T11:02:57.860Z,-1.40
2019-01-25T11:05:24.709Z,-1.30
2019-01-25T11:07:53.290Z,-1.30
2019-01-25T11:10:21.931Z,-1.20
2019-01-25T11:12:50.529Z,-1.30
2019-01-25T11:15:21.705Z,-1.10
2019-01-25T11:17:51.794Z,-1.10
2019-01-25T11:20:25.174Z,-1.00
2019-01-25T11:22:54.276Z,-1.00
2019-01-25T11:25:37.471Z,-0.90
2019-01-25T11:28:06.050Z,-0.90
2019-01-25T11:30:34.690Z,-0.90
2019-01-25T11:33:03.531Z,-0.90
2019-01-25T11:35:32.181Z,-0.80
2019-01-25T11:38:00.839Z,-0.90
2019-01-25T11:40:38.193Z,-0.90
2019-01-25T11:43:08.811Z,-1.00
2019-01-25T11:45:37.230Z,-1.00
2019-01-25T11:48:09.055Z,-0.90
2019-01-25T11:50:37.633Z,-0.80
2019-01-25T11:53:06.221Z,-0.90
2019-01-25T11:55:34.885Z,-0.80
2019-01-25T11:58:03.550Z,-0.90
2019-01-25T12:00:32.793Z,-0.80
2019-01-25T12:03:01.306Z,-0.80
2019-01-25T12:05:29.885Z,-0.90
2019-01-25T12:07:58.543Z,-0.80
2019-01-25T12:10:29.733Z,-0.80
2019-01-25T12:12:58.245Z,-0.80
2019-01-25T12:15:26.894Z,-0.70
2019-01-25T12:17:55.414Z,-0.70
2019-01-25T12:20:28.954Z,-0.80
2019-01-25T12:22:57.614Z,-0.80
2019-01-25T12:25:26.125Z,-0.80
2019-01-25T12:27:54.951Z,-0.70
2019-01-25T12:30:37.841Z,-0.70
2019-01-25T12:33:04.241Z,-0.70
2019-01-25T12:35:37.767Z,-0.70
2019-01-25T12:38:06.505Z,-0.70
2019-01-25T12:40:35.081Z,-0.70
2019-01-25T12:43:04.228Z,-0.80
2019-01-25T12:45:33.426Z,-0.70
2019-01-25T12:48:02.091Z,-0.60
2019-01-25T12:50:33.972Z,-0.60
2019-01-25T12:53:05.010Z,-0.60
2019-01-25T12:55:33.596Z,-0.60
2019-01-25T12:58:03.998Z,-0.70
2019-01-25T13:00:32.715Z,-0.70
2019-01-25T13:03:01.434Z,-0.70
2019-01-25T13:05:30.159Z,-0.60
2019-01-25T13:07:58.749Z,-0.70
2019-01-25T13:10:28.123Z,-0.60
2019-01-25T13:12:56.779Z,-0.50
2019-01-25T13:15:25.290Z,-0.50
2019-01-25T13:17:54.583Z,-0.40
2019-01-25T13:20:34.046Z,-0.50
2019-01-25T13:23:02.745Z,-0.40
2019-01-25T13:25:31.386Z,-0.40
2019-01-25T13:28:00.056Z,-0.40
2019-01-25T13:30:30.563Z,-0.30
2019-01-25T13:33:00.327Z,-0.40
2019-01-25T13:35:28.995Z,-0.40
2019-01-25T13:37:57.561Z,-0.40
2019-01-25T13:40:27.351Z,-0.30
2019-01-25T13:42:56.074Z,-0.30
2019-01-25T13:45:24.984Z,-0.30
2019-01-25T13:47:53.900Z,-0.20
2019-01-25T13:50:29.357Z,-0.20
2019-01-25T13:52:57.935Z,-0.20
2019-01-25T13:55:26.877Z,-0.20
2019-01-25T13:57:55.441Z,-0.20
2019-01-25T14:00:32.129Z,-0.20
2019-01-25T14:03:02.481Z,-0.10
2019-01-25T14:05:31.414Z,-0.10
2019-01-25T14:07:59.904Z,-0.10
2019-01-25T14:10:33.634Z,-0.10
2019-01-25T14:13:02.351Z,-0.10
2019-01-25T14:15:31.094Z,-0.10
2019-01-25T14:17:59.670Z,0.10
2019-01-25T14:20:32.599Z,0.10
2019-01-25T14:23:01.172Z,0.10
2019-01-25T14:25:29.822Z,0.10
2019-01-25T14:27:58.392Z,0.20
2019-01-25T14:30:37.855Z,0.10
2019-01-25T14:33:06.974Z,0.10
2019-01-25T14:35:35.713Z,0.20
2019-01-25T14:38:04.983Z,0.20
2019-01-25T14:40:33.615Z,0.20
2019-01-25T14:43:02.130Z,0.30
2019-01-25T14:45:30.837Z,0.30
2019-01-25T14:47:59.425Z,0.40
2019-01-25T14:50:32.149Z,0.40
2019-01-25T14:53:00.810Z,0.50
2019-01-25T14:55:29.526Z,0.50
2019-01-25T14:57:58.114Z,0.50
2019-01-25T15:00:26.686Z,0.50
2019-01-25T15:02:55.322Z,0.60
2019-01-25T15:05:23.846Z,0.60
2019-01-25T15:07:52.437Z,0.60
2019-01-25T15:10:23.241Z,0.70
2019-01-25T15:12:54.785Z,0.70
2019-01-25T15:15:23.454Z,0.70
2019-01-25T15:17:53.326Z,0.70
2019-01-25T15:20:24.141Z,0.70
2019-01-25T15:22:52.730Z,0.70
2019-01-25T15:25:21.375Z,0.70
2019-01-25T15:27:49.966Z,0.70
2019-01-25T15:30:27.207Z,0.70
2019-01-25T15:32:55.807Z,0.70
2019-01-25T15:35:24.626Z,0.70
2019-01-25T15:37:53.218Z,0.70
2019-01-25T15:40:22.536Z,0.80
2019-01-25T15:42:51.201Z,0.80
2019-01-25T15:45:21.212Z,0.80
2019-01-25T15:47:49.878Z,0.70
2019-01-25T15:50:24.335Z,0.80
2019-01-25T15:52:54.527Z,0.70
2019-01-25T15:55:23.735Z,0.80
2019-01-25T15:57:52.410Z,0.70
2019-01-25T16:00:27.824Z,0.70
2019-01-25T16:02:57.956Z,0.70
2019-01-25T16:05:29.138Z,0.70
2019-01-25T16:07:57.723Z,0.70
2019-01-25T16:10:26.453Z,0.70
2019-01-25T16:12:54.977Z,0.70
2019-01-25T16:15:28.315Z,0.70
2019-01-25T16:17:57.482Z,0.70
2019-01-25T16:20:26.231Z,0.70
2019-01-25T16:22:56.841Z,0.70
2019-01-25T16:25:27.481Z,0.70
2019-01-25T16:27:58.865Z,0.70
2019-01-25T16:30:33.005Z,0.70
2019-01-25T16:33:01.594Z,0.70
2019-01-25T16:35:30.567Z,0.70
2019-01-25T16:38:00.995Z,0.70
2019-01-25T16:40:30.523Z,0.70
2019-01-25T16:42:59.111Z,0.70
2019-01-25T16:45:33.628Z,0.70
2019-01-25T16:48:02.230Z,0.70
2019-01-25T16:50:30.798Z,0.70
2019-01-25T16:52:59.451Z,0.70
2019-01-25T16:55:28.087Z,0.70
2019-01-25T16:57:56.681Z,0.70
2019-01-25T17:00:30.733Z,0.70
2019-01-25T17:02:59.382Z,0.70
2019-01-25T17:05:28.099Z,0.70
2019-01-25T17:07:56.762Z,0.70
2019-01-25T17:10:25.406Z,0.70
2019-01-25T17:12:54.748Z,0.70
2019-01-25T17:15:23.460Z,0.70
2019-01-25T17:17:52.063Z,0.70
2019-01-25T17:20:25.766Z,0.70
2019-01-25T17:22:54.363Z,0.70
2019-01-25T17:25:23.702Z,0.70
2019-01-25T17:27:52.303Z,0.70
2019-01-25T17:30:29.405Z,0.70
2019-01-25T17:32:59.558Z,0.70
2019-01-25T17:35:28.469Z,0.70
2019-01-25T17:37:58.497Z,0.70
2019-01-25T17:40:32.542Z,0.70
2019-01-25T17:43:01.202Z,0.70
2019-01-25T17:45:29.842Z,0.70
2019-01-25T17:47:58.567Z,0.70
2019-01-25T17:50:27.139Z,0.70
2019-01-25T17:52:55.801Z,0.70
2019-01-25T17:55:24.444Z,0.80
2019-01-25T17:57:53.171Z,0.80
2019-01-25T18:00:34.479Z,0.80
2019-01-25T18:03:03.059Z,0.80
2019-01-25T18:05:31.626Z,0.80
2019-01-25T18:08:00.172Z,0.80
2019-01-25T18:10:28.801Z,0.80
2019-01-25T18:12:57.313Z,0.80
2019-01-25T18:15:25.962Z,0.80
2019-01-25T18:17:55.576Z,0.80
2019-01-25T18:20:24.776Z,0.80
2019-01-25T18:22:53.606Z,0.90
2019-01-25T18:25:25.241Z,0.90
2019-01-25T18:28:02.384Z,0.90
2019-01-25T18:30:34.023Z,0.90
2019-01-25T18:33:02.609Z,0.90
2019-01-25T18:35:31.172Z,0.90
2019-01-25T18:37:59.778Z,0.90
2019-01-25T18:40:28.350Z,0.90
2019-01-25T18:42:56.925Z,0.90
2019-01-25T18:45:25.425Z,0.90
2019-01-25T18:47:54.006Z,0.90
2019-01-25T18:50:22.567Z,1.00
2019-01-25T18:52:51.158Z,1.00
2019-01-25T18:55:22.550Z,1.00
2019-01-25T18:57:51.214Z,1.00
2019-01-25T19:00:21.344Z,1.00
2019-01-25T19:02:49.901Z,1.00
2019-01-25T19:05:18.481Z,1.00
2019-01-25T19:07:46.965Z,1.10
2019-01-25T19:10:21.181Z,1.00
2019-01-25T19:12:55.086Z,1.10
2019-01-25T19:15:31.010Z,1.10
2019-01-25T19:17:59.918Z,1.10
2019-01-25T19:20:28.573Z,1.10
2019-01-25T19:22:57.235Z,1.10
2019-01-25T19:25:25.889Z,1.10
2019-01-25T19:27:54.459Z,1.20
2019-01-25T19:30:31.383Z,1.20
2019-01-25T19:33:00.862Z,1.20
2019-01-25T19:35:31.378Z,1.20
2019-01-25T19:38:00.179Z,1.20
2019-01-25T19:40:33.662Z,1.30
2019-01-25T19:43:02.358Z,1.30
2019-01-25T19:45:30.949Z,1.30
2019-01-25T19:47:59.580Z,1.30
2019-01-25T19:50:28.261Z,1.30
2019-01-25T19:52:56.891Z,1.40
2019-01-25T19:55:31.507Z,1.40
2019-01-25T19:58:03.362Z,1.40
2019-01-25T20:00:37.167Z,1.40
2019-01-25T20:03:06.470Z,1.40
2019-01-25T20:05:35.054Z,1.50
2019-01-25T20:08:04.989Z,1.50
2019-01-25T20:10:33.666Z,1.50
2019-01-25T20:13:02.160Z,1.50
2019-01-25T20:15:30.742Z,1.50
2019-01-25T20:17:59.382Z,1.50
2019-01-25T20:20:33.670Z,1.50
2019-01-25T20:23:02.173Z,1.60
2019-01-25T20:25:30.745Z,1.60
2019-01-25T20:28:01.120Z,1.60
2019-01-25T20:30:33.802Z,1.60
2019-01-25T20:33:04.040Z,1.60
2019-01-25T20:35:37.978Z,1.60
2019-01-25T20:38:06.673Z,1.60
2019-01-25T20:40:35.262Z,1.60
2019-01-25T20:43:04.402Z,1.70
2019-01-25T20:45:35.455Z,1.70
2019-01-25T20:48:04.267Z,1.70
2019-01-25T20:50:34.595Z,1.70
2019-01-25T20:53:03.297Z,1.60
2019-01-25T20:55:31.966Z,1.70
2019-01-25T20:58:00.536Z,1.70
2019-01-25T21:00:31.574Z,1.70
2019-01-25T21:03:00.382Z,1.70
2019-01-25T21:05:29.039Z,1.70
2019-01-25T21:07:57.743Z,1.70
2019-01-25T21:10:26.683Z,1.80
2019-01-25T21:12:55.406Z,1.80
2019-01-25T21:15:26.022Z,1.80
2019-01-25T21:17:54.849Z,1.80
2019-01-25T21:20:26.282Z,1.80
2019-01-25T21:22:54.846Z,1.80
2019-01-25T21:25:23.502Z,1.80
2019-01-25T21:27:52.258Z,1.80
2019-01-25T21:30:28.941Z,1.80
2019-01-25T21:32:57.439Z,1.80
2019-01-25T21:35:26.266Z,1.80
2019-01-25T21:37:54.758Z,1.80
2019-01-25T21:40:28.868Z,1.90
2019-01-25T21:42:58.272Z,1.90
2019-01-25T21:45:29.545Z,1.90
2019-01-25T21:47:58.773Z,1.90
2019-01-25T21:50:30.418Z,1.90
2019-01-25T21:52:58.987Z,2.00
2019-01-25T21:55:27.580Z,2.00
2019-01-25T21:57:56.136Z,2.00
2019-01-25T22:00:27.373Z,2.00
2019-01-25T22:02:55.933Z,2.00
2019-01-25T22:05:24.699Z,2.00
2019-01-25T22:07:53.255Z,2.00
2019-01-25T22:10:24.322Z,2.00
2019-01-25T22:12:52.904Z,2.00
2019-01-25T22:15:21.563Z,2.00
2019-01-25T22:17:50.270Z,2.00
2019-01-25T22:20:20.844Z,2.00
2019-01-25T22:22:49.483Z,2.00
2019-01-25T22:25:18.212Z,2.10
2019-01-25T22:27:48.512Z,2.00
2019-01-25T22:30:19.375Z,2.10
2019-01-25T22:32:48.085Z,2.10
2019-01-25T22:35:16.815Z,2.10
2019-01-25T22:37:45.449Z,2.10
2019-01-25T22:40:19.161Z,2.10
2019-01-25T22:42:47.870Z,2.10
2019-01-25T22:45:18.740Z,2.10
2019-01-25T22:47:47.240Z,2.20
2019-01-25T22:50:18.567Z,2.20
2019-01-25T22:52:47.127Z,2.20
2019-01-25T22:55:17.556Z,2.20
2019-01-25T22:57:46.191Z,2.30
2019-01-25T23:00:25.313Z,2.30
2019-01-25T23:02:53.871Z,2.30
2019-01-25T23:05:40.347Z,2.40
2019-01-25T23:08:08.905Z,2.40
2019-01-25T23:10:37.495Z,2.40
2019-01-25T23:13:06.131Z,2.40
2019-01-25T23:15:34.717Z,2.50
2019-01-25T23:18:03.209Z,2.50
2019-01-25T23:20:31.789Z,2.50
2019-01-25T23:23:00.365Z,2.50
2019-01-25T23:25:28.891Z,2.50
2019-01-25T23:27:57.446Z,2.50
2019-01-25T23:30:26.401Z,2.50
2019-01-25T23:32:54.986Z,2.50
2019-01-25T23:35:24.113Z,2.50
2019-01-25T23:37:54.174Z,2.60
2019-01-25T23:40:22.733Z,2.60
2019-01-25T23:42:51.244Z,2.60
2019-01-25T23:45:19.875Z,2.60
2019-01-25T23:47:48.468Z,2.60
2019-01-25T23:50:17.270Z,2.60
2019-01-25T23:52:45.782Z,2.60
2019-01-25T23:55:14.470Z,2.70
2019-01-25T23:57:43.036Z,2.60
